createdAt,value
2022-12-08T00:01:51.982Z,100805.78
2022-12-08T00:04:23.748Z,100797.97
2022-12-08T00:07:10.029Z,100796.22
2022-12-08T00:09:40.724Z,100804.94
2022-12-08T00:12:13.453Z,100807.56
2022-12-08T00:14:43.453Z,100811.06
2022-12-08T00:17:12.898Z,100809.31
2022-12-08T00:19:40.718Z,100810.19
2022-12-08T00:22:11.797Z,100809.31
2022-12-08T00:24:40.957Z,100804.09
2022-12-08T00:27:09.860Z,100804.94
2022-12-08T00:29:36.965Z,100800.59
2022-12-08T00:32:05.655Z,100801.44
2022-12-08T00:34:33.779Z,100805.81
2022-12-08T00:37:01.322Z,100801.47
2022-12-08T00:39:30.318Z,100814.53
2022-12-08T00:42:14.793Z,100805.84
2022-12-08T00:44:44.059Z,100818.03
2022-12-08T00:47:13.898Z,100824.19
2022-12-08T00:49:41.626Z,100840.75
2022-12-08T00:52:09.144Z,100823.28
2022-12-08T00:54:36.365Z,100819.78
2022-12-08T00:57:04.539Z,100831.13
2022-12-08T00:59:31.506Z,100824.16
2022-12-08T01:02:01.436Z,100814.56
2022-12-08T01:04:28.419Z,100811.09
2022-12-08T01:06:57.565Z,100812.84
2022-12-08T01:09:25.081Z,100812.84
2022-12-08T01:11:53.819Z,100815.47
2022-12-08T01:14:21.229Z,100819.00
2022-12-08T01:16:48.638Z,100822.47
2022-12-08T01:19:16.487Z,100820.72
2022-12-08T01:21:47.739Z,100813.75
2022-12-08T01:24:20.188Z,100821.59
2022-12-08T01:26:49.954Z,100817.22
2022-12-08T01:29:19.201Z,100819.00
2022-12-08T01:31:48.764Z,100820.75
2022-12-08T01:34:20.497Z,100824.22
2022-12-08T01:36:52.534Z,100831.19
2022-12-08T01:39:20.165Z,100830.34
2022-12-08T01:41:49.213Z,100829.44
2022-12-08T01:44:18.719Z,100832.94
2022-12-08T01:46:56.025Z,100827.72
2022-12-08T01:49:31.211Z,100826.84
2022-12-08T01:52:13.373Z,100827.72
2022-12-08T01:54:50.162Z,100826.84
2022-12-08T01:57:55.904Z,100824.22
2022-12-08T02:00:28.175Z,100832.06
2022-12-08T02:03:04.940Z,100834.69
2022-12-08T02:05:36.218Z,100836.44
2022-12-08T02:08:07.196Z,100826.81
2022-12-08T02:10:37.789Z,100830.31
2022-12-08T02:13:14.882Z,100821.56
2022-12-08T02:16:00.216Z,100825.94
2022-12-08T02:18:40.806Z,100822.44
2022-12-08T02:21:29.741Z,100828.56
2022-12-08T02:24:05.617Z,100827.69
2022-12-08T02:27:06.071Z,100832.91
2022-12-08T02:30:07.143Z,100828.56
2022-12-08T02:32:43.412Z,100829.44
2022-12-08T02:35:28.537Z,100829.44
2022-12-08T02:38:20.756Z,100832.94
2022-12-08T02:41:15.244Z,100842.56
2022-12-08T02:43:46.730Z,100841.66
2022-12-08T02:46:23.029Z,100827.69
2022-12-08T02:48:52.636Z,100832.03
2022-12-08T02:51:20.235Z,100829.41
2022-12-08T02:53:48.900Z,100817.16
2022-12-08T02:56:35.895Z,100821.53
2022-12-08T02:59:26.880Z,100818.91
2022-12-08T03:02:46.983Z,100830.28
2022-12-08T03:05:18.827Z,100834.66
2022-12-08T03:08:16.416Z,100831.19
2022-12-08T03:10:53.303Z,100834.66
2022-12-08T03:13:30.236Z,100825.94
2022-12-08T03:16:01.378Z,100833.78
2022-12-08T03:18:31.701Z,100833.78
2022-12-08T03:21:00.404Z,100832.91
2022-12-08T03:23:31.513Z,100830.28
2022-12-08T03:26:09.015Z,100832.88
2022-12-08T03:28:36.179Z,100834.63
2022-12-08T03:31:07.997Z,100838.16
2022-12-08T03:33:40.903Z,100830.25
2022-12-08T03:36:10.384Z,100839.88
2022-12-08T03:38:50.269Z,100852.97
2022-12-08T03:41:21.662Z,100855.59
2022-12-08T03:43:57.687Z,100855.56
2022-12-08T03:48:53.425Z,100864.28
2022-12-08T03:51:25.365Z,100858.19
2022-12-08T03:53:53.270Z,100852.97
2022-12-08T03:56:28.722Z,100852.09
2022-12-08T03:58:55.764Z,100846.00
2022-12-08T04:01:24.180Z,100855.59
2022-12-08T04:03:51.673Z,100845.16
2022-12-08T04:06:21.996Z,100844.25
2022-12-08T04:08:51.639Z,100848.63
2022-12-08T04:11:19.914Z,100855.63
2022-12-08T04:13:47.868Z,100851.25
2022-12-08T04:16:22.139Z,100849.50
2022-12-08T04:18:49.739Z,100836.41
2022-12-08T04:21:17.788Z,100839.03
2022-12-08T04:23:46.336Z,100847.75
2022-12-08T04:26:14.513Z,100851.25
2022-12-08T04:28:44.713Z,100851.22
2022-12-08T04:31:13.702Z,100846.00
2022-12-08T04:33:40.729Z,100856.50
2022-12-08T04:36:08.545Z,100849.50
2022-12-08T04:38:35.603Z,100851.25
2022-12-08T04:41:03.199Z,100853.00
2022-12-08T04:43:30.309Z,100846.00
2022-12-08T04:45:58.419Z,100853.88
2022-12-08T04:48:25.466Z,100856.47
2022-12-08T04:50:52.830Z,100868.72
2022-12-08T04:53:20.274Z,100858.22
2022-12-08T04:55:49.733Z,100866.94
2022-12-08T04:58:19.853Z,100874.84
2022-12-08T05:00:48.612Z,100870.47
2022-12-08T05:03:28.123Z,100875.69
2022-12-08T05:05:56.433Z,100877.44
2022-12-08T05:08:23.680Z,100881.81
2022-12-08T05:10:52.080Z,100873.09
2022-12-08T05:13:24.614Z,100873.94
2022-12-08T05:15:53.705Z,100880.94
2022-12-08T05:18:27.039Z,100885.28
2022-12-08T05:20:56.954Z,100891.41
2022-12-08T05:23:28.646Z,100890.53
2022-12-08T05:25:56.771Z,100889.66
2022-12-08T05:31:19.795Z,100903.63
2022-12-08T05:34:03.700Z,100911.50
2022-12-08T05:36:34.887Z,100910.63
2022-12-08T05:42:07.492Z,100913.22
2022-12-08T05:44:37.319Z,100903.63
2022-12-08T05:47:08.814Z,100913.25
2022-12-08T06:00:41.114Z,100910.56
2022-12-08T06:03:11.470Z,100915.84
2022-12-08T06:05:41.125Z,100913.22
2022-12-08T06:08:08.944Z,100909.72
2022-12-08T06:21:30.435Z,100924.53
2022-12-08T06:26:50.831Z,100921.91
2022-12-08T06:29:20.281Z,100931.50
2022-12-08T06:32:00.351Z,100928.88
2022-12-08T06:34:27.509Z,100921.84
2022-12-08T06:37:09.981Z,100935.84
2022-12-08T06:39:37.451Z,100934.09
2022-12-08T06:45:20.126Z,100934.06
2022-12-08T06:47:49.387Z,100941.91
2022-12-08T06:53:17.990Z,100941.91
2022-12-08T06:56:00.252Z,100945.44
2022-12-08T06:58:46.053Z,100948.09
2022-12-08T07:01:26.124Z,100958.56
2022-12-08T07:03:53.585Z,100957.69
2022-12-08T07:09:25.810Z,100971.66
2022-12-08T07:11:55.057Z,100965.53
2022-12-08T07:14:27.021Z,100969.03
2022-12-08T07:16:54.666Z,100974.28
2022-12-08T07:19:22.886Z,100967.31
2022-12-08T07:21:52.636Z,100969.03
2022-12-08T07:24:44.739Z,100975.19
2022-12-08T07:27:22.778Z,100977.81
2022-12-08T07:35:17.797Z,100985.66
2022-12-08T07:37:45.417Z,100997.00
2022-12-08T07:42:56.697Z,100997.00
2022-12-08T07:45:31.457Z,101000.50
2022-12-08T07:47:59.410Z,100995.22
2022-12-08T07:58:53.575Z,100987.34
2022-12-08T08:01:33.357Z,100984.69
2022-12-08T08:04:15.397Z,100974.16
2022-12-08T08:12:30.114Z,100976.78
2022-12-08T08:20:20.094Z,100986.31
2022-12-08T08:28:40.800Z,100994.06
2022-12-08T08:31:29.095Z,100987.06
2022-12-08T08:34:13.409Z,100996.66
2022-12-08T08:36:43.682Z,101001.00
2022-12-08T08:39:12.541Z,101004.50
2022-12-08T08:41:44.874Z,100997.47
2022-12-08T08:46:55.355Z,100995.75
2022-12-08T08:49:22.782Z,100998.34
2022-12-08T08:54:47.010Z,100992.13
2022-12-08T09:02:40.959Z,100988.47
2022-12-08T09:13:32.389Z,100977.09
2022-12-08T09:16:12.923Z,100971.91
2022-12-08T09:21:27.985Z,100977.22
2022-12-08T09:24:08.436Z,100974.56
2022-12-08T09:29:17.829Z,100968.47
2022-12-08T09:34:28.907Z,100972.94
2022-12-08T09:36:58.509Z,100970.31
2022-12-08T09:39:28.593Z,100963.34
2022-12-08T09:45:14.440Z,100966.88
2022-12-08T09:48:09.643Z,100963.41
2022-12-08T09:53:51.184Z,100970.34
2022-12-08T09:56:25.354Z,100965.97
2022-12-08T09:59:10.624Z,100978.22
2022-12-08T10:01:55.053Z,100969.47
2022-12-08T10:04:34.540Z,100976.41
2022-12-08T10:13:38.665Z,100960.69
2022-12-08T10:16:23.122Z,100951.03
2022-12-08T10:19:23.474Z,100946.63
2022-12-08T10:24:52.137Z,100954.47
2022-12-08T10:30:03.448Z,100944.84
2022-12-08T10:32:39.878Z,100952.72
2022-12-08T10:35:08.453Z,100956.22
2022-12-08T10:52:29.836Z,100951.66
2022-12-08T10:55:08.706Z,100948.22
2022-12-08T10:57:44.663Z,100945.69
2022-12-08T11:03:09.193Z,100946.47
2022-12-08T11:05:46.923Z,100946.50
2022-12-08T11:10:58.193Z,100943.88
2022-12-08T11:13:42.237Z,100945.53
2022-12-08T11:19:28.650Z,100929.56
2022-12-08T11:21:56.059Z,100938.19
2022-12-08T11:24:38.999Z,100938.13
2022-12-08T11:27:07.479Z,100926.66
2022-12-08T11:29:36.340Z,100921.44
2022-12-08T11:35:04.610Z,100913.44
2022-12-08T11:37:53.205Z,100916.03
2022-12-08T11:40:44.229Z,100924.72
2022-12-08T11:43:39.830Z,100921.00
2022-12-08T11:46:43.271Z,100915.63
2022-12-08T11:52:54.510Z,100930.19
2022-12-08T11:58:43.051Z,100936.16
2022-12-08T12:11:52.675Z,100928.28
2022-12-08T12:20:55.770Z,100921.31
2022-12-08T12:26:38.349Z,100923.03
2022-12-08T12:29:13.649Z,100914.34
2022-12-08T12:31:47.675Z,100910.03
2022-12-08T12:34:28.121Z,100914.50
2022-12-08T12:37:23.478Z,100913.75
2022-12-08T12:40:01.799Z,100923.53
2022-12-08T12:42:52.080Z,100921.84
2022-12-08T12:45:35.891Z,100914.97
2022-12-08T12:48:24.343Z,100923.78
2022-12-08T12:51:45.589Z,100923.84
2022-12-08T12:57:27.787Z,100910.69
2022-12-08T13:02:50.696Z,100900.94
2022-12-08T13:05:33.768Z,100913.16
2022-12-08T13:08:24.194Z,100918.44
2022-12-08T13:11:11.485Z,100907.91
2022-12-08T13:14:00.672Z,100908.81
2022-12-08T13:16:36.659Z,100914.94
2022-12-08T13:22:45.453Z,100931.53
2022-12-08T13:25:47.798Z,100936.88
2022-12-08T13:28:27.630Z,100926.34
2022-12-08T13:39:47.407Z,100938.59
2022-12-08T13:42:51.785Z,100921.16
2022-12-08T13:57:10.478Z,100931.19
2022-12-08T13:59:45.535Z,100933.84
2022-12-08T14:05:47.517Z,100936.59
2022-12-08T14:11:44.702Z,100935.63
2022-12-08T14:15:01.225Z,100938.31
2022-12-08T14:22:46.983Z,100928.75
2022-12-08T14:25:17.047Z,100933.13
2022-12-08T14:30:32.099Z,100927.84
2022-12-08T14:35:56.165Z,100922.59
2022-12-08T14:38:27.283Z,100921.69
2022-12-08T14:41:14.428Z,100921.69
2022-12-08T14:46:34.160Z,100915.69
2022-12-08T14:49:07.039Z,100920.09
2022-12-08T14:54:28.127Z,100916.59
2022-12-08T15:05:22.463Z,100921.00
2022-12-08T15:10:39.968Z,100921.91
2022-12-08T15:13:10.137Z,100922.78
2022-12-08T15:15:57.982Z,100927.19
2022-12-08T15:18:39.941Z,100934.16
2022-12-08T15:21:12.879Z,100935.94
2022-12-08T15:23:45.087Z,100940.34
2022-12-08T15:26:23.796Z,100939.44
2022-12-08T15:28:51.100Z,100935.94
2022-12-08T15:31:18.936Z,100930.66
2022-12-08T15:33:46.082Z,100927.19
2022-12-08T15:36:13.592Z,100927.19
2022-12-08T15:38:40.641Z,100928.91
2022-12-08T15:41:13.001Z,100929.81
2022-12-08T15:43:41.804Z,100919.31
2022-12-08T15:46:09.230Z,100923.69
2022-12-08T15:48:37.926Z,100914.91
2022-12-08T15:51:05.587Z,100913.19
2022-12-08T15:53:33.242Z,100917.59
2022-12-08T15:58:55.119Z,100919.34
2022-12-08T16:01:24.017Z,100917.63
2022-12-08T16:09:33.460Z,100900.13
2022-12-08T16:12:19.719Z,100897.53
2022-12-08T16:15:47.088Z,100901.00
2022-12-08T16:17:34.972Z,100897.53
2022-12-08T16:20:02.818Z,100887.13
2022-12-08T16:25:21.482Z,100902.03
2022-12-08T16:28:03.150Z,100902.88
2022-12-08T16:30:36.018Z,100900.31
2022-12-08T16:33:03.466Z,100907.34
2022-12-08T16:35:30.892Z,100903.00
2022-12-08T16:37:58.565Z,100904.75
2022-12-08T16:40:25.748Z,100917.91
2022-12-08T16:42:55.141Z,100910.06
2022-12-08T16:48:49.923Z,100915.31
2022-12-08T16:51:25.109Z,100920.63
2022-12-08T16:53:55.609Z,100917.16
2022-12-08T16:56:28.761Z,100918.06
2022-12-08T16:58:59.982Z,100926.81
2022-12-08T17:04:31.718Z,100925.91
2022-12-08T17:06:59.476Z,100911.97
2022-12-08T17:09:28.611Z,100926.84
2022-12-08T17:12:03.256Z,100918.16
2022-12-08T17:14:35.441Z,100919.91
2022-12-08T17:17:03.013Z,100907.72
2022-12-08T17:19:30.732Z,100915.59
2022-12-08T17:21:57.722Z,100907.72
2022-12-08T17:24:29.053Z,100911.25
2022-12-08T17:27:00.040Z,100913.84
2022-12-08T17:29:27.421Z,100908.59
2022-12-08T17:31:55.381Z,100917.31
2022-12-08T17:34:26.185Z,100911.22
2022-12-08T17:36:54.520Z,100906.81
2022-12-08T17:39:22.389Z,100905.94
2022-12-08T17:41:49.762Z,100913.81
2022-12-08T17:44:20.158Z,100905.91
2022-12-08T17:47:07.212Z,100907.66
2022-12-08T17:49:34.617Z,100913.72
2022-12-08T17:52:05.182Z,100912.81
2022-12-08T17:54:33.029Z,100911.97
2022-12-08T17:57:00.176Z,100905.81
2022-12-08T17:59:30.788Z,100920.66
2022-12-08T18:01:58.940Z,100905.75
2022-12-08T18:04:27.229Z,100907.50
2022-12-08T18:06:54.992Z,100897.88
2022-12-08T18:09:23.578Z,100908.38
2022-12-08T18:11:52.045Z,100922.38
2022-12-08T18:14:20.278Z,100916.22
2022-12-08T18:16:48.161Z,100923.22
2022-12-08T18:19:16.222Z,100909.22
2022-12-08T18:21:43.561Z,100910.97
2022-12-08T18:24:23.321Z,100915.31
2022-12-08T18:26:52.486Z,100914.47
2022-12-08T18:29:22.671Z,100913.59
2022-12-08T18:31:52.450Z,100917.94
2022-12-08T18:34:19.924Z,100916.22
2022-12-08T18:36:47.676Z,100922.31
2022-12-08T18:39:35.195Z,100925.81
2022-12-08T18:42:22.869Z,100917.09
2022-12-08T18:44:50.680Z,100925.78
2022-12-08T18:47:18.588Z,100923.16
2022-12-08T18:49:49.084Z,100912.69
2022-12-08T18:52:22.726Z,100925.78
2022-12-08T18:55:10.074Z,100927.50
2022-12-08T18:57:48.107Z,100924.03
2022-12-08T19:00:18.499Z,100922.28
2022-12-08T19:02:46.038Z,100902.22
2022-12-08T19:05:14.290Z,100893.47
2022-12-08T19:07:42.834Z,100905.72
2022-12-08T19:10:10.955Z,100917.94
2022-12-08T19:12:38.073Z,100903.09
2022-12-08T19:15:06.133Z,100900.47
2022-12-08T19:17:33.395Z,100908.34
2022-12-08T19:20:00.902Z,100916.22
2022-12-08T19:22:27.891Z,100904.91
2022-12-08T19:24:55.479Z,100894.38
2022-12-08T19:27:23.336Z,100899.66
2022-12-08T19:29:50.739Z,100898.75
2022-12-08T19:32:17.817Z,100899.66
2022-12-08T19:34:45.486Z,100903.13
2022-12-08T19:37:13.101Z,100905.75
2022-12-08T19:39:59.671Z,100901.41
2022-12-08T19:42:45.729Z,100911.88
2022-12-08T19:45:21.716Z,100899.63
2022-12-08T19:47:48.877Z,100895.25
2022-12-08T19:50:37.589Z,100884.75
2022-12-08T19:53:06.104Z,100892.63
2022-12-08T19:55:34.413Z,100878.69
2022-12-08T19:58:02.082Z,100898.78
2022-12-08T20:00:34.109Z,100905.75
2022-12-08T20:03:02.325Z,100903.09
2022-12-08T20:05:32.852Z,100901.31
2022-12-08T20:08:07.497Z,100896.06
2022-12-08T20:10:42.348Z,100888.19
2022-12-08T20:13:31.125Z,100895.19
2022-12-08T20:15:58.537Z,100889.09
2022-12-08T20:18:31.545Z,100883.03
2022-12-08T20:20:59.638Z,100887.38
2022-12-08T20:23:31.503Z,100892.59
2022-12-08T20:26:00.227Z,100869.84
2022-12-08T20:28:27.359Z,100872.44
2022-12-08T20:31:00.054Z,100876.81
2022-12-08T20:33:36.032Z,100874.19
2022-12-08T20:36:08.204Z,100879.41
2022-12-08T20:38:36.329Z,100882.94
2022-12-08T20:41:16.713Z,100884.69
2022-12-08T20:43:46.059Z,100883.78
2022-12-08T20:46:17.529Z,100885.56
2022-12-08T20:48:44.946Z,100878.59
2022-12-08T20:51:17.226Z,100882.06
2022-12-08T20:53:45.303Z,100883.78
2022-12-08T20:56:20.326Z,100888.13
2022-12-08T20:58:48.322Z,100867.97
2022-12-08T21:01:18.260Z,100871.50
2022-12-08T21:03:46.983Z,100865.38
2022-12-08T21:06:15.185Z,100867.09
2022-12-08T21:08:43.575Z,100864.50
2022-12-08T21:11:12.005Z,100863.63
2022-12-08T21:13:39.515Z,100860.16
2022-12-08T21:16:09.471Z,100859.28
2022-12-08T21:18:39.615Z,100855.78
2022-12-08T21:21:27.137Z,100860.16
2022-12-08T21:23:57.647Z,100850.50
2022-12-08T21:26:28.110Z,100848.75
2022-12-08T21:28:55.621Z,100853.09
2022-12-08T21:31:23.740Z,100843.50
2022-12-08T21:33:51.093Z,100852.25
2022-12-08T21:36:21.002Z,100850.50
2022-12-08T21:38:48.381Z,100841.75
2022-12-08T21:41:40.889Z,100837.41
2022-12-08T21:44:10.313Z,100838.31
2022-12-08T21:46:38.550Z,100833.97
2022-12-08T21:49:07.282Z,100840.94
2022-12-08T21:51:42.347Z,100838.31
2022-12-08T21:54:16.743Z,100833.06
2022-12-08T21:56:48.323Z,100840.88
2022-12-08T21:59:16.410Z,100841.75
2022-12-08T22:01:44.249Z,100840.03
2022-12-08T22:04:27.289Z,100840.03
2022-12-08T22:06:55.140Z,100833.91
2022-12-08T22:09:24.368Z,100843.53
2022-12-08T22:11:52.474Z,100838.31
2022-12-08T22:14:20.095Z,100832.16
2022-12-08T22:16:48.058Z,100832.13
2022-12-08T22:19:17.369Z,100843.47
2022-12-08T22:21:45.412Z,100836.44
2022-12-08T22:24:12.714Z,100828.59
2022-12-08T22:26:48.356Z,100822.44
2022-12-08T22:29:16.441Z,100816.34
2022-12-08T22:31:46.266Z,100809.34
2022-12-08T22:34:14.813Z,100807.66
2022-12-08T22:36:43.279Z,100808.56
2022-12-08T22:39:13.537Z,100813.81
2022-12-08T22:41:40.930Z,100798.91
2022-12-08T22:44:09.064Z,100796.31
2022-12-08T22:46:37.602Z,100800.69
2022-12-08T22:49:04.696Z,100785.81
2022-12-08T22:51:32.081Z,100791.03
2022-12-08T22:53:59.360Z,100788.41
2022-12-08T22:56:30.675Z,100774.44
2022-12-08T22:58:58.495Z,100782.28
2022-12-08T23:01:29.995Z,100764.81
2022-12-08T23:03:58.728Z,100769.16
2022-12-08T23:06:28.097Z,100766.53
2022-12-08T23:08:57.207Z,100763.03
2022-12-08T23:11:27.988Z,100759.50
2022-12-08T23:14:03.139Z,100762.13
2022-12-08T23:16:30.793Z,100757.78
2022-12-08T23:18:59.328Z,100742.94
2022-12-08T23:21:27.063Z,100744.66
2022-12-08T23:23:54.299Z,100747.28
2022-12-08T23:26:28.085Z,100746.41
2022-12-08T23:28:56.377Z,100742.03
2022-12-08T23:31:24.855Z,100749.00
2022-12-08T23:33:54.238Z,100735.00
2022-12-08T23:36:26.343Z,100734.09
2022-12-08T23:38:54.315Z,100725.34
2022-12-08T23:41:22.090Z,100726.22
2022-12-08T23:43:52.858Z,100713.13
2022-12-08T23:46:21.973Z,100711.44
2022-12-08T23:48:50.198Z,100713.19
2022-12-08T23:51:18.512Z,100713.19
2022-12-08T23:53:45.975Z,100705.25
2022-12-08T23:56:15.868Z,100704.44
2022-12-08T23:58:43.630Z,100706.22
